sensor_id;sensor_type;location;lat;lon;timestamp;temperature;humidity
42965;DHT22;28604;51.204;22.552;2023-12-20T06:32:39;5.10;93.60
42965;DHT22;28604;51.204;22.552;2023-12-20T06:35:05;5.10;93.60
42965;DHT22;28604;51.204;22.552;2023-12-20T06:37:31;5.20;93.60
42965;DHT22;28604;51.204;22.552;2023-12-20T06:39:57;5.20;93.70
42965;DHT22;28604;51.204;22.552;2023-12-20T06:42:23;5.10;93.50
42965;DHT22;28604;51.204;22.552;2023-12-20T06:44:49;5.20;93.40
42965;DHT22;28604;51.204;22.552;2023-12-20T06:47:15;5.10;93.50
42965;DHT22;28604;51.204;22.552;2023-12-20T06:49:41;5.20;93.40
42965;DHT22;28604;51.204;22.552;2023-12-20T06:52:07;5.10;93.50
42965;DHT22;28604;51.204;22.552;2023-12-20T06:54:33;5.10;93.60
42965;DHT22;28604;51.204;22.552;2023-12-20T06:57:02;5.10;93.30
42965;DHT22;28604;51.204;22.552;2023-12-20T06:59:29;5.10;93.40
42965;DHT22;28604;51.204;22.552;2023-12-20T07:01:55;5.10;93.30
42965;DHT22;28604;51.204;22.552;2023-12-20T07:04:21;5.10;93.30
42965;DHT22;28604;51.204;22.552;2023-12-20T07:06:48;5.10;93.40
42965;DHT22;28604;51.204;22.552;2023-12-20T07:09:16;5.10;93.30
42965;DHT22;28604;51.204;22.552;2023-12-20T07:11:42;5.10;93.30
42965;DHT22;28604;51.204;22.552;2023-12-20T07:14:08;5.10;93.50
42965;DHT22;28604;51.204;22.552;2023-12-20T07:16:34;5.10;93.40
42965;DHT22;28604;51.204;22.552;2023-12-20T07:19:00;5.10;93.50
42965;DHT22;28604;51.204;22.552;2023-12-20T07:21:26;5.10;93.70
42965;DHT22;28604;51.204;22.552;2023-12-20T07:23:52;5.10;93.60
42965;DHT22;28604;51.204;22.552;2023-12-20T07:26:19;5.10;93.50
42965;DHT22;28604;51.204;22.552;2023-12-20T07:28:49;5.10;93.60
42965;DHT22;28604;51.204;22.552;2023-12-20T07:31:15;5.10;93.60
42965;DHT22;28604;51.204;22.552;2023-12-20T07:33:42;5.10;93.60
42965;DHT22;28604;51.204;22.552;2023-12-20T07:36:08;5.10;93.50
42965;DHT22;28604;51.204;22.552;2023-12-20T07:38:34;5.00;93.50
42965;DHT22;28604;51.204;22.552;2023-12-20T07:41:00;5.00;93.50
42965;DHT22;28604;51.204;22.552;2023-12-20T07:43:26;5.10;93.50
42965;DHT22;28604;51.204;22.552;2023-12-20T07:45:52;5.00;93.50
42965;DHT22;28604;51.204;22.552;2023-12-20T07:48:18;5.10;93.40
42965;DHT22;28604;51.204;22.552;2023-12-20T07:50:44;5.10;93.60
42965;DHT22;28604;51.204;22.552;2023-12-20T07:53:11;5.10;93.60
42965;DHT22;28604;51.204;22.552;2023-12-20T07:55:36;5.00;93.40
42965;DHT22;28604;51.204;22.552;2023-12-20T07:58:03;5.10;93.40
42965;DHT22;28604;51.204;22.552;2023-12-20T08:00:30;5.10;93.30
42965;DHT22;28604;51.204;22.552;2023-12-20T08:02:56;5.10;93.40
42965;DHT22;28604;51.204;22.552;2023-12-20T08:05:22;5.10;93.40
42965;DHT22;28604;51.204;22.552;2023-12-20T08:07:48;5.10;93.30
42965;DHT22;28604;51.204;22.552;2023-12-20T08:10:14;5.10;93.30
42965;DHT22;28604;51.204;22.552;2023-12-20T08:12:40;5.10;93.30
42965;DHT22;28604;51.204;22.552;2023-12-20T08:15:06;5.10;93.40
42965;DHT22;28604;51.204;22.552;2023-12-20T08:17:33;5.10;93.50
42965;DHT22;28604;51.204;22.552;2023-12-20T08:19:59;5.20;93.50
42965;DHT22;28604;51.204;22.552;2023-12-20T08:22:26;5.10;93.60
42965;DHT22;28604;51.204;22.552;2023-12-20T08:24:52;5.10;93.40
42965;DHT22;28604;51.204;22.552;2023-12-20T08:27:18;5.10;93.50
42965;DHT22;28604;51.204;22.552;2023-12-20T08:29:44;5.10;93.50
42965;DHT22;28604;51.204;22.552;2023-12-20T09:19:02;5.10;93.70
42965;DHT22;28604;51.204;22.552;2023-12-20T09:21:28;5.00;93.70
42965;DHT22;28604;51.204;22.552;2023-12-20T09:23:54;5.00;93.80
42965;DHT22;28604;51.204;22.552;2023-12-20T09:26:20;5.10;93.90
42965;DHT22;28604;51.204;22.552;2023-12-20T09:28:46;5.10;94.10
42965;DHT22;28604;51.204;22.552;2023-12-20T09:31:12;5.10;94.00
42965;DHT22;28604;51.204;22.552;2023-12-20T09:33:38;5.10;93.90
42965;DHT22;28604;51.204;22.552;2023-12-20T09:36:05;5.10;93.90
42965;DHT22;28604;51.204;22.552;2023-12-20T09:38:31;5.10;93.80
42965;DHT22;28604;51.204;22.552;2023-12-20T09:40:57;5.20;93.90
42965;DHT22;28604;51.204;22.552;2023-12-20T09:43:24;5.10;93.90
42965;DHT22;28604;51.204;22.552;2023-12-20T09:45:53;5.20;93.80
42965;DHT22;28604;51.204;22.552;2023-12-20T09:48:19;5.20;94.00
42965;DHT22;28604;51.204;22.552;2023-12-20T09:50:46;5.20;93.90
42965;DHT22;28604;51.204;22.552;2023-12-20T09:53:15;5.20;93.80
42965;DHT22;28604;51.204;22.552;2023-12-20T09:55:42;5.20;93.90
42965;DHT22;28604;51.204;22.552;2023-12-20T09:58:08;5.20;93.90
42965;DHT22;28604;51.204;22.552;2023-12-20T10:00:35;5.20;93.80
42965;DHT22;28604;51.204;22.552;2023-12-20T10:03:01;5.20;93.80
42965;DHT22;28604;51.204;22.552;2023-12-20T10:05:30;5.20;93.80
42965;DHT22;28604;51.204;22.552;2023-12-20T10:07:57;5.10;93.90
42965;DHT22;28604;51.204;22.552;2023-12-20T10:10:23;5.20;93.90
42965;DHT22;28604;51.204;22.552;2023-12-20T10:15:36;5.20;93.90
42965;DHT22;28604;51.204;22.552;2023-12-20T10:18:03;5.20;94.00
42965;DHT22;28604;51.204;22.552;2023-12-20T10:20:31;5.20;94.20
42965;DHT22;28604;51.204;22.552;2023-12-20T10:22:58;5.20;94.00
42965;DHT22;28604;51.204;22.552;2023-12-20T10:25:25;5.20;94.20
42965;DHT22;28604;51.204;22.552;2023-12-20T10:28:15;5.20;94.00
42965;DHT22;28604;51.204;22.552;2023-12-20T10:30:45;5.20;94.20
42965;DHT22;28604;51.204;22.552;2023-12-20T10:33:11;5.20;94.10
42965;DHT22;28604;51.204;22.552;2023-12-20T10:35:38;5.30;94.10
42965;DHT22;28604;51.204;22.552;2023-12-20T10:38:05;5.20;94.10
42965;DHT22;28604;51.204;22.552;2023-12-20T10:40:34;5.30;94.10
42965;DHT22;28604;51.204;22.552;2023-12-20T10:43:03;5.30;94.10
42965;DHT22;28604;51.204;22.552;2023-12-20T10:45:30;5.30;94.10
42965;DHT22;28604;51.204;22.552;2023-12-20T10:47:56;5.30;94.10
42965;DHT22;28604;51.204;22.552;2023-12-20T10:50:26;5.30;94.40
42965;DHT22;28604;51.204;22.552;2023-12-20T10:52:54;5.30;94.20
42965;DHT22;28604;51.204;22.552;2023-12-20T10:55:25;5.30;94.20
42965;DHT22;28604;51.204;22.552;2023-12-20T10:57:51;5.30;94.20
42965;DHT22;28604;51.204;22.552;2023-12-20T11:00:19;5.30;94.30
42965;DHT22;28604;51.204;22.552;2023-12-20T11:02:49;5.30;94.20
42965;DHT22;28604;51.204;22.552;2023-12-20T11:05:36;5.40;94.20
42965;DHT22;28604;51.204;22.552;2023-12-20T11:10:48;5.40;94.10
42965;DHT22;28604;51.204;22.552;2023-12-20T11:13:32;5.40;94.00
42965;DHT22;28604;51.204;22.552;2023-12-20T11:16:00;5.40;94.10
42965;DHT22;28604;51.204;22.552;2023-12-20T11:18:29;5.40;94.10
42965;DHT22;28604;51.204;22.552;2023-12-20T11:21:04;5.40;94.20
42965;DHT22;28604;51.204;22.552;2023-12-20T11:23:32;5.40;94.00
42965;DHT22;28604;51.204;22.552;2023-12-20T11:26:01;5.40;94.00
42965;DHT22;28604;51.204;22.552;2023-12-20T11:28:27;5.40;94.20
42965;DHT22;28604;51.204;22.552;2023-12-20T11:30:57;5.40;94.20
42965;DHT22;28604;51.204;22.552;2023-12-20T11:33:26;5.50;94.10
42965;DHT22;28604;51.204;22.552;2023-12-20T11:35:59;5.40;94.20
42965;DHT22;28604;51.204;22.552;2023-12-20T11:38:25;5.40;94.10
42965;DHT22;28604;51.204;22.552;2023-12-20T11:40:54;5.50;94.20
42965;DHT22;28604;51.204;22.552;2023-12-20T11:43:37;5.40;94.30
42965;DHT22;28604;51.204;22.552;2023-12-20T11:46:05;5.50;94.10
42965;DHT22;28604;51.204;22.552;2023-12-20T11:48:32;5.50;94.10
42965;DHT22;28604;51.204;22.552;2023-12-20T11:50:58;5.50;94.00
42965;DHT22;28604;51.204;22.552;2023-12-20T11:53:24;5.50;94.00
42965;DHT22;28604;51.204;22.552;2023-12-20T11:55:51;5.50;94.00
42965;DHT22;28604;51.204;22.552;2023-12-20T11:58:17;5.50;94.00
42965;DHT22;28604;51.204;22.552;2023-12-20T12:00:43;5.50;94.10
42965;DHT22;28604;51.204;22.552;2023-12-20T12:03:09;5.50;94.00
42965;DHT22;28604;51.204;22.552;2023-12-20T12:05:35;5.50;94.00
42965;DHT22;28604;51.204;22.552;2023-12-20T12:08:02;5.50;94.20
42965;DHT22;28604;51.204;22.552;2023-12-20T12:10:31;5.50;94.00
42965;DHT22;28604;51.204;22.552;2023-12-20T12:12:57;5.50;94.00
42965;DHT22;28604;51.204;22.552;2023-12-20T12:15:25;5.40;94.00
42965;DHT22;28604;51.204;22.552;2023-12-20T12:52:13;5.30;94.10
42965;DHT22;28604;51.204;22.552;2023-12-20T12:54:39;5.40;94.10
42965;DHT22;28604;51.204;22.552;2023-12-20T12:57:05;5.30;94.20
42965;DHT22;28604;51.204;22.552;2023-12-20T12:59:31;5.30;94.10
42965;DHT22;28604;51.204;22.552;2023-12-20T13:01:57;5.40;94.10
42965;DHT22;28604;51.204;22.552;2023-12-20T13:04:24;5.40;94.10
42965;DHT22;28604;51.204;22.552;2023-12-20T13:06:50;5.40;94.20
42965;DHT22;28604;51.204;22.552;2023-12-20T13:09:17;5.40;94.20
42965;DHT22;28604;51.204;22.552;2023-12-20T13:11:45;5.40;94.10
42965;DHT22;28604;51.204;22.552;2023-12-20T13:14:11;5.40;94.10
42965;DHT22;28604;51.204;22.552;2023-12-20T13:16:42;5.40;94.10
42965;DHT22;28604;51.204;22.552;2023-12-20T13:19:08;5.30;94.10
42965;DHT22;28604;51.204;22.552;2023-12-20T13:21:35;5.30;94.10
42965;DHT22;28604;51.204;22.552;2023-12-20T13:24:01;5.30;94.10
42965;DHT22;28604;51.204;22.552;2023-12-20T13:26:28;5.30;94.20
42965;DHT22;28604;51.204;22.552;2023-12-20T13:28:54;5.30;94.20
42965;DHT22;28604;51.204;22.552;2023-12-20T13:31:20;5.20;94.10
42965;DHT22;28604;51.204;22.552;2023-12-20T13:33:46;5.10;94.00
42965;DHT22;28604;51.204;22.552;2023-12-20T13:36:12;5.10;94.20
42965;DHT22;28604;51.204;22.552;2023-12-20T13:38:38;5.10;94.20
42965;DHT22;28604;51.204;22.552;2023-12-20T13:41:05;5.10;94.20
42965;DHT22;28604;51.204;22.552;2023-12-20T13:43:31;5.10;94.20
42965;DHT22;28604;51.204;22.552;2023-12-20T13:45:59;5.10;94.20
42965;DHT22;28604;51.204;22.552;2023-12-20T13:48:25;5.10;94.10
42965;DHT22;28604;51.204;22.552;2023-12-20T13:50:51;5.10;94.40
42965;DHT22;28604;51.204;22.552;2023-12-20T13:53:17;5.10;94.10
42965;DHT22;28604;51.204;22.552;2023-12-20T13:55:43;5.10;94.20
42965;DHT22;28604;51.204;22.552;2023-12-20T13:58:09;5.00;94.10
42965;DHT22;28604;51.204;22.552;2023-12-20T14:00:38;5.00;94.20
42965;DHT22;28604;51.204;22.552;2023-12-20T14:03:04;5.00;94.20
42965;DHT22;28604;51.204;22.552;2023-12-20T14:05:31;5.00;94.30
42965;DHT22;28604;51.204;22.552;2023-12-20T14:07:57;5.00;94.20
42965;DHT22;28604;51.204;22.552;2023-12-20T14:10:23;5.00;94.20
42965;DHT22;28604;51.204;22.552;2023-12-20T14:12:53;5.00;94.20
42965;DHT22;28604;51.204;22.552;2023-12-20T14:15:19;5.00;94.30
42965;DHT22;28604;51.204;22.552;2023-12-20T14:17:45;4.90;94.20
42965;DHT22;28604;51.204;22.552;2023-12-20T14:20:11;4.90;94.20
42965;DHT22;28604;51.204;22.552;2023-12-20T14:22:41;4.90;94.20
42965;DHT22;28604;51.204;22.552;2023-12-20T14:25:13;4.90;94.20
42965;DHT22;28604;51.204;22.552;2023-12-20T14:27:41;4.90;94.30
42965;DHT22;28604;51.204;22.552;2023-12-20T14:30:09;4.90;94.30
42965;DHT22;28604;51.204;22.552;2023-12-20T14:32:35;4.90;94.30
42965;DHT22;28604;51.204;22.552;2023-12-20T14:35:06;4.80;94.30
42965;DHT22;28604;51.204;22.552;2023-12-20T14:37:32;4.80;94.30
42965;DHT22;28604;51.204;22.552;2023-12-20T14:39:58;4.80;94.30
42965;DHT22;28604;51.204;22.552;2023-12-20T14:42:24;4.80;94.30
42965;DHT22;28604;51.204;22.552;2023-12-20T14:44:50;4.80;94.30
42965;DHT22;28604;51.204;22.552;2023-12-20T14:47:17;4.80;94.30
42965;DHT22;28604;51.204;22.552;2023-12-20T14:49:43;4.80;94.40
42965;DHT22;28604;51.204;22.552;2023-12-20T14:52:10;4.80;94.40
42965;DHT22;28604;51.204;22.552;2023-12-20T14:54:37;4.80;94.40
42965;DHT22;28604;51.204;22.552;2023-12-20T14:57:03;4.80;94.40
42965;DHT22;28604;51.204;22.552;2023-12-20T14:59:29;4.80;94.30
42965;DHT22;28604;51.204;22.552;2023-12-20T15:01:55;4.80;94.30
42965;DHT22;28604;51.204;22.552;2023-12-20T15:04:21;4.80;94.40
42965;DHT22;28604;51.204;22.552;2023-12-20T15:06:54;4.80;94.40
42965;DHT22;28604;51.204;22.552;2023-12-20T15:09:21;4.80;94.30
42965;DHT22;28604;51.204;22.552;2023-12-20T15:11:47;4.80;94.30
42965;DHT22;28604;51.204;22.552;2023-12-20T15:14:13;4.80;94.40
42965;DHT22;28604;51.204;22.552;2023-12-20T15:16:46;4.80;94.30
42965;DHT22;28604;51.204;22.552;2023-12-20T15:19:15;4.80;94.50
42965;DHT22;28604;51.204;22.552;2023-12-20T15:21:41;4.80;94.40
42965;DHT22;28604;51.204;22.552;2023-12-20T15:24:09;4.70;94.40
42965;DHT22;28604;51.204;22.552;2023-12-20T15:26:55;4.80;94.50
42965;DHT22;28604;51.204;22.552;2023-12-20T15:29:21;4.80;94.50
42965;DHT22;28604;51.204;22.552;2023-12-20T15:31:47;4.80;94.50
42965;DHT22;28604;51.204;22.552;2023-12-20T15:34:14;4.80;94.50
42965;DHT22;28604;51.204;22.552;2023-12-20T15:36:41;4.80;94.50
42965;DHT22;28604;51.204;22.552;2023-12-20T15:39:07;4.80;94.50
42965;DHT22;28604;51.204;22.552;2023-12-20T15:41:34;4.80;94.50
42965;DHT22;28604;51.204;22.552;2023-12-20T15:44:01;4.90;94.50
42965;DHT22;28604;51.204;22.552;2023-12-20T15:46:27;4.90;94.50
42965;DHT22;28604;51.204;22.552;2023-12-20T15:48:53;4.80;94.40
42965;DHT22;28604;51.204;22.552;2023-12-20T15:58:51;4.90;94.50
42965;DHT22;28604;51.204;22.552;2023-12-20T16:01:18;4.90;94.50
42965;DHT22;28604;51.204;22.552;2023-12-20T16:03:46;4.80;94.50
